Time;durP1;ratioP1;P1;durP2;ratioP2;P2;SDS_P1;SDS_P2;PMS_P1;PMS_P2;Temp;Humidity;BMP_temperature;BMP_pressure;BME280_temperature;BME280_humidity;BME280_pressure;Samples;Min_cycle;Max_cycle;Signal;HPM_P1;HPM_P2
2022/08/17 00:01:24;;;;;;;13.00;3.95;;;;;;;18.27;86.48;98981.39;1755658;81;21045;-74
2022/08/17 00:03:51;;;;;;;10.53;4.67;;;;;;;18.26;86.44;98979.71;1755545;81;21004;-74
2022/08/17 00:06:28;;;;;;;9.25;4.58;;;;;;;18.26;86.39;98980.20;1755500;81;21103;-74
2022/08/17 00:08:57;;;;;;;12.35;4.90;;;;;;;18.24;86.40;98977.65;1755759;81;21110;-74
2022/08/17 00:11:34;;;;;;;11.50;4.87;;;;;;;18.23;86.48;98975.94;1755390;81;21504;-75
2022/08/17 00:14:06;;;;;;;13.00;4.80;;;;;;;18.22;86.52;98976.05;1754527;81;21139;-74
2022/08/17 00:16:40;;;;;;;16.30;5.65;;;;;;;18.20;86.58;98975.67;1755533;81;21068;-75
2022/08/17 00:19:10;;;;;;;14.83;5.27;;;;;;;18.18;86.70;98976.27;1756041;81;21001;-74
2022/08/17 00:21:40;;;;;;;12.28;5.03;;;;;;;18.15;86.73;98971.17;1755653;81;21785;-73
2022/08/17 00:24:07;;;;;;;7.87;4.70;;;;;;;18.14;86.68;98965.50;1755608;80;21055;-74
2022/08/17 00:26:33;;;;;;;11.30;4.90;;;;;;;18.13;86.71;98967.78;1755646;80;21128;-75
2022/08/17 00:29:01;;;;;;;10.03;5.12;;;;;;;18.10;86.79;98972.49;1755425;81;21001;-76
2022/08/17 00:31:27;;;;;;;9.20;5.12;;;;;;;18.09;86.88;98970.78;1755408;81;21059;-74
2022/08/17 00:33:54;;;;;;;10.40;5.90;;;;;;;18.08;86.96;98975.76;1755448;81;22024;-74
2022/08/17 00:36:22;;;;;;;16.73;7.45;;;;;;;18.06;87.10;98981.20;1755378;80;21558;-74
2022/08/17 00:38:49;;;;;;;10.85;7.60;;;;;;;18.04;87.31;98979.13;1755198;81;21558;-75
2022/08/17 00:41:23;;;;;;;16.85;8.58;;;;;;;18.00;87.46;98976.31;1755560;81;21575;-75
2022/08/17 00:43:59;;;;;;;15.40;7.95;;;;;;;17.98;87.67;98983.08;1755550;81;21028;-74
2022/08/17 00:46:32;;;;;;;19.32;8.30;;;;;;;17.98;87.74;98990.22;1755598;81;21130;-75
2022/08/17 00:48:58;;;;;;;14.47;7.60;;;;;;;17.97;87.88;98979.20;1755563;81;21055;-74
2022/08/17 00:51:49;;;;;;;16.62;7.33;;;;;;;17.95;87.93;98982.46;1755480;81;21697;-74
2022/08/17 00:54:24;;;;;;;12.65;7.03;;;;;;;17.93;87.97;98981.73;1755617;81;21068;-74
2022/08/17 00:57:04;;;;;;;10.78;7.05;;;;;;;17.91;88.00;98981.00;1755731;81;21492;-75
2022/08/17 00:59:35;;;;;;;19.55;7.78;;;;;;;17.89;88.03;98978.45;1756016;80;21095;-73
2022/08/17 01:02:01;;;;;;;15.38;6.58;;;;;;;17.87;88.14;98979.51;1755393;81;20985;-75
2022/08/17 01:04:28;;;;;;;13.45;6.58;;;;;;;17.83;88.17;98975.70;1724133;81;21017;-74
2022/08/17 01:06:54;;;;;;;18.10;6.85;;;;;;;17.83;88.13;98971.72;1755374;81;21103;-74
2022/08/17 01:09:21;;;;;;;9.20;5.87;;;;;;;17.85;88.09;98980.08;1755592;81;21581;-74
2022/08/17 01:11:51;;;;;;;9.25;5.92;;;;;;;17.84;87.95;98971.25;1755447;81;21309;-74
2022/08/17 01:14:22;;;;;;;11.97;6.05;;;;;;;17.85;87.88;98975.59;1755244;81;21567;-74
2022/08/17 01:16:50;;;;;;;10.08;6.37;;;;;;;17.86;87.78;98976.47;1755063;81;21585;-75
2022/08/17 01:19:20;;;;;;;9.93;6.37;;;;;;;17.87;87.72;98968.86;1755825;81;22303;-74
2022/08/17 01:21:57;;;;;;;15.35;6.97;;;;;;;17.88;87.66;98965.25;1755506;81;21135;-74
2022/08/17 01:24:24;;;;;;;9.38;6.37;;;;;;;17.87;87.64;98964.87;1755348;81;21568;-75
2022/08/17 01:26:50;;;;;;;10.78;5.83;;;;;;;17.85;87.66;98965.44;1755732;81;21047;-74
2022/08/17 01:29:17;;;;;;;10.40;6.28;;;;;;;17.84;87.66;98967.27;1755762;80;21640;-74
2022/08/17 01:31:49;;;;;;;13.60;6.28;;;;;;;17.82;87.74;98964.71;1723903;81;21079;-74
2022/08/17 01:34:16;;;;;;;12.33;6.00;;;;;;;17.79;87.78;98964.93;1757380;80;21476;-74
2022/08/17 01:36:46;;;;;;;11.55;5.90;;;;;;;17.77;87.87;98970.85;1723602;81;21172;-74
2022/08/17 01:39:35;;;;;;;12.85;5.72;;;;;;;17.75;87.96;98964.80;1757355;81;21139;-74
2022/08/17 01:42:16;;;;;;;14.93;5.40;;;;;;;17.75;87.98;98966.13;1757131;81;21068;-74
2022/08/17 01:44:43;;;;;;;12.98;5.50;;;;;;;17.72;88.07;98957.04;1757468;81;21535;-74
2022/08/17 01:47:09;;;;;;;12.73;5.30;;;;;;;17.70;88.02;98960.76;1757568;81;21013;-75
2022/08/17 01:49:36;;;;;;;11.83;5.10;;;;;;;17.71;88.07;98953.16;1757755;81;21493;-74
2022/08/17 01:52:07;;;;;;;8.08;5.40;;;;;;;17.71;88.07;98955.82;1757334;81;21072;-74
2022/08/17 01:54:33;;;;;;;11.40;5.40;;;;;;;17.70;88.12;98952.32;1757314;81;21076;-74
2022/08/17 01:57:01;;;;;;;14.70;4.95;;;;;;;17.68;88.20;98952.88;1753916;81;20996;-74
2022/08/17 01:59:27;;;;;;;9.23;4.40;;;;;;;17.68;88.20;98954.22;1726662;83;21567;-74
2022/08/17 02:01:53;;;;;;;8.98;5.10;;;;;;;17.67;88.21;98949.00;1726960;83;21561;-74
2022/08/17 02:04:20;;;;;;;12.28;5.30;;;;;;;17.65;88.21;98946.45;1726762;83;21085;-74
2022/08/17 02:06:47;;;;;;;7.95;5.20;;;;;;;17.63;88.27;98952.38;1726687;83;21336;-74
2022/08/17 02:09:13;;;;;;;8.40;5.20;;;;;;;17.60;88.30;98948.14;1726353;83;21123;-74
2022/08/17 02:11:40;;;;;;;14.23;5.25;;;;;;;17.60;88.32;98945.94;1727008;83;21481;-75
2022/08/17 02:14:07;;;;;;;7.30;5.33;;;;;;;17.61;88.38;98943.66;1726760;83;21131;-74
2022/08/17 02:16:37;;;;;;;9.10;5.08;;;;;;;17.59;88.39;98936.28;1726612;82;21567;-74
2022/08/17 02:19:07;;;;;;;13.75;4.90;;;;;;;17.59;88.44;98942.93;1726510;83;21088;-74
2022/08/17 02:21:35;;;;;;;7.83;4.60;;;;;;;17.58;88.42;98939.40;1726746;83;21928;-75
2022/08/17 02:24:03;;;;;;;7.55;4.65;;;;;;;17.60;88.31;98941.95;1726862;83;21010;-74
2022/08/17 02:26:30;;;;;;;12.25;4.65;;;;;;;17.59;88.36;98939.78;1726749;83;21217;-75
2022/08/17 02:28:57;;;;;;;8.78;5.08;;;;;;;17.58;88.41;98942.55;1726678;83;21135;-74
2022/08/17 02:31:23;;;;;;;12.05;4.62;;;;;;;17.58;88.40;98941.22;1726596;83;21144;-74
2022/08/17 02:33:50;;;;;;;14.45;4.30;;;;;;;17.57;88.44;98941.71;1726565;83;21072;-74
2022/08/17 02:36:16;;;;;;;7.97;4.95;;;;;;;17.56;88.55;98941.82;1726996;83;20970;-75
2022/08/17 02:38:43;;;;;;;11.38;4.33;;;;;;;17.54;88.67;98942.42;1726535;81;21109;-75
2022/08/17 02:41:11;;;;;;;7.80;4.33;;;;;;;17.53;88.77;98939.38;1727081;82;21084;-74
2022/08/17 02:43:38;;;;;;;11.30;5.40;;;;;;;17.51;88.83;98942.14;1726832;83;22354;-74
2022/08/17 02:46:04;;;;;;;10.88;4.97;;;;;;;17.51;88.86;98947.95;1726895;83;21080;-74
2022/08/17 02:48:31;;;;;;;11.05;4.85;;;;;;;17.50;88.88;98944.91;1726628;83;21076;-74
2022/08/17 02:50:59;;;;;;;6.72;4.28;;;;;;;17.49;88.93;98949.88;1726648;83;21116;-74
2022/08/17 02:53:26;;;;;;;11.60;4.65;;;;;;;17.49;88.94;98943.23;1726762;83;21010;-76
2022/08/17 02:55:52;;;;;;;11.63;4.53;;;;;;;17.49;88.99;98948.06;1726702;83;21104;-75
2022/08/17 02:58:19;;;;;;;12.93;4.83;;;;;;;17.49;89.17;98941.91;1726743;83;21104;-74
2022/08/17 03:00:47;;;;;;;9.03;4.70;;;;;;;17.46;89.27;98939.81;1726484;83;21067;-74
2022/08/17 03:03:17;;;;;;;8.95;4.55;;;;;;;17.47;89.30;98932.70;1726679;83;21085;-74
2022/08/17 03:05:48;;;;;;;8.63;4.67;;;;;;;17.49;89.37;98948.55;1726643;83;21058;-75
2022/08/17 03:08:15;;;;;;;10.05;4.92;;;;;;;17.50;89.50;98942.25;1726596;83;21623;-74
2022/08/17 03:10:42;;;;;;;8.95;5.42;;;;;;;17.48;89.50;98943.69;1726538;83;21146;-74
2022/08/17 03:13:09;;;;;;;6.45;4.45;;;;;;;17.50;89.50;98945.78;1726566;83;21084;-75
2022/08/17 03:15:35;;;;;;;10.63;4.72;;;;;;;17.53;89.45;98943.36;1726837;83;21110;-74
2022/08/17 03:18:02;;;;;;;9.48;4.62;;;;;;;17.56;89.37;98941.82;1726751;83;21029;-75
2022/08/17 03:20:31;;;;;;;9.33;5.12;;;;;;;17.58;89.53;98938.06;1726965;82;21085;-74
2022/08/17 03:22:58;;;;;;;6.87;4.85;;;;;;;17.61;89.53;98941.84;1726636;83;21097;-73
2022/08/17 03:25:28;;;;;;;13.95;5.05;;;;;;;17.63;89.38;98941.73;1726782;83;21077;-73
2022/08/17 03:27:54;;;;;;;12.78;4.97;;;;;;;17.67;89.38;98936.58;1726983;83;21041;-74
2022/08/17 03:30:21;;;;;;;12.30;5.20;;;;;;;17.69;89.50;98937.80;1726675;82;20999;-74
2022/08/17 03:32:49;;;;;;;11.80;4.78;;;;;;;17.69;89.61;98935.97;1757295;80;21483;-74
2022/08/17 03:35:18;;;;;;;9.25;4.53;;;;;;;17.70;89.63;98933.69;1781529;80;21114;-74
2022/08/17 03:37:45;;;;;;;12.35;4.85;;;;;;;17.73;89.49;98934.77;1781450;80;21066;-75
2022/08/17 03:40:12;;;;;;;6.45;4.87;;;;;;;17.76;89.46;98932.38;1781598;80;21124;-75
2022/08/17 03:42:38;;;;;;;8.35;5.00;;;;;;;17.79;89.54;98937.48;1781497;80;22126;-74
2022/08/17 03:45:10;;;;;;;11.05;4.60;;;;;;;17.82;89.49;98940.77;1781813;80;20995;-75
2022/08/17 03:58:45;;;;;;;9.33;4.80;;;;;;;17.96;89.40;98935.77;1727125;83;21574;-74
2022/08/17 04:01:12;;;;;;;11.53;4.92;;;;;;;18.01;89.52;98934.11;1727714;83;21071;-75
2022/08/17 04:03:39;;;;;;;11.53;4.92;;;;;;;18.04;89.43;98936.55;1727258;83;21056;-74
2022/08/17 04:06:06;;;;;;;11.28;5.10;;;;;;;18.07;89.35;98932.33;1727248;83;21120;-75
2022/08/17 04:08:32;;;;;;;7.47;4.97;;;;;;;18.11;89.26;98927.13;1727794;83;21064;-75
2022/08/17 04:10:59;;;;;;;9.38;5.35;;;;;;;18.17;89.09;98928.00;1727280;81;20996;-74
2022/08/17 04:13:26;;;;;;;7.30;5.10;;;;;;;18.21;89.01;98929.95;1727138;83;21086;-74
2022/08/17 04:15:53;;;;;;;13.25;4.80;;;;;;;18.25;88.91;98935.89;1727142;83;21024;-74
2022/08/17 04:18:19;;;;;;;9.13;5.35;;;;;;;18.31;88.77;98930.11;1727583;82;21654;-74
2022/08/17 04:20:46;;;;;;;10.03;4.37;;;;;;;18.38;88.60;98937.49;1727434;83;21091;-74
2022/08/17 04:23:15;;;;;;;9.58;4.97;;;;;;;18.42;88.53;98931.94;1727612;83;21071;-75
2022/08/17 04:25:46;;;;;;;12.35;5.05;;;;;;;18.47;88.48;98931.94;1727353;83;21035;-75
2022/08/17 04:28:13;;;;;;;6.20;4.78;;;;;;;18.53;88.39;98930.14;1727332;83;21629;-74
2022/08/17 04:30:39;;;;;;;7.10;4.45;;;;;;;18.61;88.26;98926.03;1727550;83;21489;-74
2022/08/17 04:33:09;;;;;;;9.55;5.17;;;;;;;18.67;88.10;98930.41;1727199;83;21087;-74
2022/08/17 04:35:50;;;;;;;10.90;5.03;;;;;;;18.73;87.94;98927.77;1727365;83;21460;-74
2022/08/17 04:38:23;;;;;;;9.68;5.78;;;;;;;18.79;87.83;98922.43;1727558;83;21618;-74
2022/08/17 04:43:35;;;;;;;15.10;5.92;;;;;;;18.95;87.51;98914.97;1783230;80;21126;-75
2022/08/17 04:46:05;;;;;;;9.60;5.90;;;;;;;19.01;87.03;98917.13;1783195;80;22076;-74
2022/08/17 04:48:36;;;;;;;11.35;5.00;;;;;;;19.07;86.73;98915.81;1783624;80;20980;-76
2022/08/17 04:51:08;;;;;;;7.80;5.28;;;;;;;19.14;86.54;98908.17;1783315;80;21009;-74
2022/08/17 04:53:35;;;;;;;11.12;5.37;;;;;;;19.21;86.46;98910.20;1783828;80;21055;-74
2022/08/17 04:56:02;;;;;;;15.88;5.85;;;;;;;19.29;86.44;98901.11;1783450;80;21904;-74
2022/08/17 04:58:29;;;;;;;16.15;5.87;;;;;;;19.35;86.10;98898.91;1783356;80;21067;-75
2022/08/17 05:00:55;;;;;;;12.90;5.62;;;;;;;19.40;85.51;98902.06;1783191;80;21480;-74
2022/08/17 05:03:22;;;;;;;8.98;5.00;;;;;;;19.48;85.15;98899.62;1783719;80;21036;-74
2022/08/17 05:05:49;;;;;;;10.18;5.70;;;;;;;19.55;84.76;98904.84;1783299;80;21039;-74
2022/08/17 05:08:18;;;;;;;9.10;5.10;;;;;;;19.60;84.56;98893.77;1783334;80;21128;-75
2022/08/17 05:10:44;;;;;;;9.35;4.92;;;;;;;19.66;84.18;98899.45;1783640;80;21523;-74
2022/08/17 05:13:15;;;;;;;10.80;4.90;;;;;;;19.71;83.87;98904.41;1783219;80;21551;-75
2022/08/17 05:15:44;;;;;;;12.47;5.50;;;;;;;19.79;83.35;98913.17;1783313;80;21115;-74
2022/08/17 05:18:11;;;;;;;17.27;5.22;;;;;;;19.83;83.14;98909.26;1783525;80;21047;-75
2022/08/17 05:20:38;;;;;;;10.70;5.37;;;;;;;19.88;83.19;98911.05;1783388;80;21139;-74
2022/08/17 05:23:08;;;;;;;7.33;5.33;;;;;;;19.93;83.42;98908.85;1783053;80;21083;-74
2022/08/17 05:25:39;;;;;;;10.63;5.45;;;;;;;19.98;83.02;98914.66;1783347;80;21106;-74
2022/08/17 05:28:06;;;;;;;10.15;5.55;;;;;;;20.03;82.25;98915.61;1783339;80;21455;-75
2022/08/17 05:30:33;;;;;;;14.73;5.72;;;;;;;20.06;81.60;98914.52;1783692;80;21005;-75
2022/08/17 05:33:04;;;;;;;12.30;5.92;;;;;;;20.09;81.46;98916.91;1783174;80;21118;-75
2022/08/17 05:35:32;;;;;;;10.65;5.95;;;;;;;20.14;81.60;98917.38;1800997;78;21043;-74
2022/08/17 05:37:59;;;;;;;12.75;5.92;;;;;;;20.18;81.45;98913.48;1815419;79;21147;-74
2022/08/17 05:40:26;;;;;;;10.58;5.65;;;;;;;20.23;81.71;98919.28;1794158;78;21063;-74
2022/08/17 05:43:15;;;;;;;10.35;5.87;;;;;;;20.29;82.12;98912.10;1785907;80;21024;-74
2022/08/17 05:45:53;;;;;;;10.05;6.60;;;;;;;20.36;82.14;98922.61;1753289;81;21148;-75
2022/08/17 05:48:19;;;;;;;18.60;11.70;;;;;;;20.45;81.58;98916.97;1753113;81;21167;-74
2022/08/17 05:51:30;;;;;;;20.95;13.08;;;;;;;20.54;80.51;98922.02;1766424;81;21069;-74
2022/08/17 05:54:23;;;;;;;13.35;8.93;;;;;;;20.58;79.27;98919.45;1740796;81;21488;-75
2022/08/17 05:57:04;;;;;;;18.90;7.03;;;;;;;20.66;79.32;98922.82;1766492;81;21092;-74
2022/08/17 05:59:59;;;;;;;15.15;5.85;;;;;;;20.74;79.19;98934.54;1766350;80;21227;-75
2022/08/17 06:02:54;;;;;;;13.08;5.40;;;;;;;20.83;78.69;98930.72;1759244;81;21057;-75
2022/08/17 06:05:43;;;;;;;11.33;4.30;;;;;;;20.94;78.36;98940.00;1750292;81;21084;-75
2022/08/17 06:08:21;;;;;;;10.85;4.40;;;;;;;21.02;77.62;98937.51;1766299;80;21072;-75
2022/08/17 06:11:09;;;;;;;9.90;4.12;;;;;;;21.12;77.77;98945.58;1766181;81;20978;-76
2022/08/17 06:14:19;;;;;;;6.72;4.47;;;;;;;21.20;77.01;98942.21;1766678;81;21450;-75
2022/08/17 06:16:49;;;;;;;6.40;4.33;;;;;;;21.31;77.62;98936.77;1766174;81;21159;-74
2022/08/17 06:19:33;;;;;;;10.80;5.08;;;;;;;21.45;77.09;98938.21;1766190;81;21096;-75
2022/08/17 06:22:01;;;;;;;8.05;4.85;;;;;;;21.56;76.58;98937.30;1766309;81;21080;-74
2022/08/17 06:24:42;;;;;;;11.05;4.70;;;;;;;21.66;76.29;98940.84;1766406;81;21104;-74
2022/08/17 06:27:35;;;;;;;6.62;4.33;;;;;;;21.74;76.78;98932.97;1766186;81;21359;-75
2022/08/17 06:30:08;;;;;;;14.00;4.53;;;;;;;21.85;76.43;98936.00;1766304;81;21535;-76
2022/08/17 06:32:37;;;;;;;11.00;4.30;;;;;;;21.97;76.15;98940.73;1766102;81;21127;-75
2022/08/17 06:35:07;;;;;;;11.90;4.45;;;;;;;22.09;75.95;98939.63;1766551;80;21038;-76
2022/08/17 06:38:09;;;;;;;6.42;4.22;;;;;;;22.19;75.56;98933.77;1736028;81;21080;-75
2022/08/17 06:41:06;;;;;;;13.40;4.70;;;;;;;22.30;74.57;98934.64;1759241;81;21124;-74
2022/08/17 06:44:02;;;;;;;10.63;4.37;;;;;;;22.44;74.31;98936.87;1755355;81;21557;-74
2022/08/17 06:46:42;;;;;;;7.60;4.97;;;;;;;22.55;73.67;98938.06;1755569;81;21438;-75
2022/08/17 06:49:24;;;;;;;14.40;4.78;;;;;;;22.67;73.35;98931.20;1755554;81;21608;-75
2022/08/17 06:51:57;;;;;;;11.80;4.30;;;;;;;22.77;73.39;98933.36;1731401;81;21607;-74
2022/08/17 06:55:00;;;;;;;7.92;4.50;;;;;;;22.86;72.86;98928.45;1755771;81;21795;-75
2022/08/17 06:57:29;;;;;;;12.93;4.40;;;;;;;22.96;71.84;98927.95;1755483;81;21037;-74
2022/08/17 07:00:07;;;;;;;14.63;4.60;;;;;;;23.09;71.37;98936.18;1755726;81;21054;-74
2022/08/17 07:02:48;;;;;;;13.25;4.90;;;;;;;23.18;70.11;98933.94;1755653;81;20994;-75
2022/08/17 07:05:17;;;;;;;10.28;4.33;;;;;;;23.27;69.52;98936.25;1755328;81;21073;-75
2022/08/17 07:08:00;;;;;;;8.33;4.33;;;;;;;23.36;68.52;98932.16;1755609;81;21834;-74
2022/08/17 07:10:28;;;;;;;8.85;4.85;;;;;;;23.45;68.04;98937.62;1752023;81;21548;-75
2022/08/17 07:12:57;;;;;;;8.53;3.98;;;;;;;23.52;67.16;98937.39;1755819;81;22209;-75
2022/08/17 07:15:32;;;;;;;8.08;4.50;;;;;;;23.60;66.99;98936.11;1755384;81;21049;-75
2022/08/17 07:17:59;;;;;;;11.55;4.55;;;;;;;23.69;67.18;98935.23;1755727;81;21117;-74
2022/08/17 07:20:25;;;;;;;10.93;4.62;;;;;;;23.81;67.28;98937.70;1755294;81;22043;-75
2022/08/17 07:23:12;;;;;;;13.10;5.45;;;;;;;23.90;66.79;98938.98;1755620;81;21954;-75
2022/08/17 07:25:39;;;;;;;16.80;4.72;;;;;;;24.01;67.35;98939.27;1755679;81;21002;-75
2022/08/17 07:28:06;;;;;;;12.03;4.58;;;;;;;24.16;67.00;98934.69;1755229;81;21034;-74
2022/08/17 07:30:43;;;;;;;10.70;4.30;;;;;;;24.26;65.27;98937.66;1752595;81;21107;-75
2022/08/17 07:33:18;;;;;;;12.90;4.42;;;;;;;24.36;64.77;98934.88;1755667;81;21114;-75
2022/08/17 07:35:47;;;;;;;8.80;4.62;;;;;;;24.50;64.53;98935.32;1755726;81;21058;-76
2022/08/17 07:38:22;;;;;;;13.00;4.35;;;;;;;24.59;64.24;98931.71;1755394;81;21635;-74
2022/08/17 07:41:03;;;;;;;12.63;4.75;;;;;;;24.69;63.91;98924.38;1751033;81;21005;-75
2022/08/17 07:43:43;;;;;;;16.37;4.33;;;;;;;24.79;63.32;98927.80;1747699;82;21033;-76
2022/08/17 07:49:15;;;;;;;8.80;4.22;;;;;;;25.02;63.22;98929.97;1747786;82;21105;-75
2022/08/17 07:51:49;;;;;;;11.18;4.33;;;;;;;25.16;61.38;98928.52;1741656;82;20998;-75
2022/08/17 07:54:24;;;;;;;8.95;3.98;;;;;;;25.27;62.35;98932.78;1771273;80;21103;-75
2022/08/17 07:57:00;;;;;;;10.58;4.33;;;;;;;25.38;62.06;98931.16;1765912;81;21047;-74
2022/08/17 07:59:35;;;;;;;9.55;4.60;;;;;;;25.46;60.46;98931.19;1742203;81;21243;-75
2022/08/17 08:02:31;;;;;;;12.05;4.00;;;;;;;25.54;59.21;98925.83;1771545;81;21027;-75
2022/08/17 08:05:21;;;;;;;13.68;4.28;;;;;;;25.61;58.73;98929.23;1771324;81;21047;-76
2022/08/17 08:07:55;;;;;;;5.92;3.98;;;;;;;25.68;58.29;98923.52;1770648;81;21542;-74
2022/08/17 08:10:29;;;;;;;15.65;3.95;;;;;;;25.75;58.45;98923.19;1771348;81;20988;-75
2022/08/17 08:13:24;;;;;;;9.53;3.92;;;;;;;25.82;57.92;98927.41;1771610;80;22323;-75
2022/08/17 08:15:55;;;;;;;13.95;3.95;;;;;;;25.87;57.90;98924.58;1771182;80;21479;-75
2022/08/17 08:18:38;;;;;;;12.70;4.37;;;;;;;25.95;57.80;98929.15;1771568;80;21005;-75
2022/08/17 08:21:18;;;;;;;8.43;4.58;;;;;;;26.03;57.53;98924.29;1769956;81;21090;-74
2022/08/17 08:24:16;;;;;;;8.93;3.98;;;;;;;26.09;56.96;98916.86;1755320;80;21174;-74
2022/08/17 08:26:51;;;;;;;9.03;4.60;;;;;;;26.13;56.84;98918.22;1771379;81;21534;-75
2022/08/17 08:29:46;;;;;;;10.48;4.35;;;;;;;26.18;57.26;98919.91;1771335;81;21016;-76
2022/08/17 08:32:32;;;;;;;;;;;;;;;26.27;58.19;98924.28;1773789;80;21162;-74
2022/08/17 08:35:31;;;;;;;16.45;5.75;;;;;;;26.37;58.43;98917.89;1771332;80;20164;-74
2022/08/17 08:38:47;;;;;;;8.25;4.33;;;;;;;26.48;58.08;98921.08;1771104;80;21636;-75
2022/08/17 08:41:31;;;;;;;10.95;4.67;;;;;;;26.61;57.90;98912.96;1771219;80;21590;-74
2022/08/17 08:44:28;;;;;;;12.58;4.83;;;;;;;26.71;56.76;98923.09;1771437;80;20980;-75
2022/08/17 08:47:17;;;;;;;10.40;4.58;;;;;;;26.78;55.58;98917.84;1771707;80;21114;-75
2022/08/17 08:50:13;;;;;;;13.60;5.50;;;;;;;26.85;56.09;98914.82;1771506;81;21122;-74
2022/08/17 08:52:54;;;;;;;14.47;5.17;;;;;;;26.93;54.77;98916.13;1771211;80;21097;-74
2022/08/17 08:55:52;;;;;;;14.03;4.67;;;;;;;26.98;55.37;98916.47;1771460;81;21139;-75
2022/08/17 08:58:47;;;;;;;9.83;5.03;;;;;;;27.06;54.70;98912.37;1771819;80;21134;-75
2022/08/17 09:02:09;;;;;;;13.70;4.85;;;;;;;27.13;55.01;98911.68;1812864;78;21058;-75
2022/08/17 09:05:01;;;;;;;15.68;5.35;;;;;;;27.24;55.48;98911.31;1793693;80;20995;-74
2022/08/17 09:07:45;;;;;;;11.35;4.83;;;;;;;27.34;54.89;98909.27;1818554;78;21033;-75
2022/08/17 09:10:29;;;;;;;14.30;5.50;;;;;;;27.42;55.63;98914.63;1818585;78;21135;-75
2022/08/17 09:13:31;;;;;;;10.25;4.75;;;;;;;27.50;54.96;98921.00;1818878;78;21085;-74
2022/08/17 09:16:06;;;;;;;22.55;5.37;;;;;;;27.59;53.68;98917.26;1818326;78;21051;-76
2022/08/17 09:18:37;;;;;;;11.75;5.55;;;;;;;27.65;54.62;98917.05;1793672;80;21006;-75
2022/08/17 09:21:25;;;;;;;9.60;5.10;;;;;;;27.73;54.76;98920.53;1794161;80;21133;-75
2022/08/17 09:24:12;;;;;;;10.03;5.20;;;;;;;27.84;54.75;98918.44;1818612;78;21533;-74
2022/08/17 09:26:47;;;;;;;11.43;5.37;;;;;;;27.95;54.72;98919.42;1810374;78;21038;-75
2022/08/17 09:29:15;;;;;;;15.75;5.20;;;;;;;28.10;55.04;98912.72;1818664;78;21113;-74
2022/08/17 09:31:57;;;;;;;17.77;4.72;;;;;;;28.21;53.69;98906.03;1793685;80;21105;-75
2022/08/17 09:34:44;;;;;;;15.40;5.25;;;;;;;28.31;54.05;98908.83;1818398;78;21592;-75
2022/08/17 09:37:35;;;;;;;14.10;5.20;;;;;;;28.41;54.48;98907.23;1791648;79;21100;-74
2022/08/17 09:40:16;;;;;;;13.55;5.22;;;;;;;28.48;53.22;98904.11;1686487;85;21111;-75
2022/08/17 09:43:15;;;;;;;12.95;5.00;;;;;;;28.47;52.70;98905.13;1781179;80;21029;-75
2022/08/17 09:45:49;;;;;;;11.78;4.87;;;;;;;28.50;53.59;98906.64;1781412;80;21580;-75
2022/08/17 09:48:50;;;;;;;11.28;4.92;;;;;;;28.64;53.38;98903.65;1781752;80;21060;-75
2022/08/17 09:51:38;;;;;;;15.03;4.58;;;;;;;28.80;53.60;98899.42;1781369;80;21171;-75
2022/08/17 09:54:25;;;;;;;14.80;5.17;;;;;;;28.95;52.75;98903.98;1797891;79;21030;-74
2022/08/17 09:57:00;;;;;;;17.42;5.47;;;;;;;29.10;52.26;98899.41;1802148;79;20992;-75
2022/08/17 09:59:51;;;;;;;18.92;5.78;;;;;;;29.18;51.72;98907.46;1802576;79;21055;-75
2022/08/17 10:02:41;;;;;;;14.45;5.58;;;;;;;29.15;50.29;98904.27;1803574;79;21063;-75
2022/08/17 10:05:36;;;;;;;14.47;5.58;;;;;;;28.98;50.91;98900.91;1803173;79;21287;-75
2022/08/17 10:08:34;;;;;;;12.17;5.33;;;;;;;28.91;50.57;98906.23;1765181;81;21586;-75
2022/08/17 10:12:14;;;;;;;11.57;5.00;;;;;;;28.86;50.82;98904.59;1803053;79;21052;-75
2022/08/17 10:14:10;;;;;;;18.27;5.87;;;;;;;28.86;51.26;98906.78;1802763;79;21547;-75
2022/08/17 10:16:46;;;;;;;12.73;5.47;;;;;;;28.96;52.13;98908.39;1802587;79;21605;-75
2022/08/17 10:19:30;;;;;;;12.40;4.72;;;;;;;29.06;50.20;98899.46;1737877;79;23260;-74
2022/08/17 10:27:39;;;;;;;11.68;5.35;;;;;;;29.39;51.86;98897.74;1803022;79;21090;-75
2022/08/17 10:30:08;;;;;;;24.32;6.10;;;;;;;29.53;51.09;98895.50;1803208;79;21039;-75
2022/08/17 10:32:55;;;;;;;17.00;5.85;;;;;;;29.67;49.46;98898.36;1803347;79;22071;-74
2022/08/17 10:35:56;;;;;;;14.75;5.50;;;;;;;29.73;49.58;98904.37;1803397;79;21138;-75
2022/08/17 10:38:36;;;;;;;19.73;5.90;;;;;;;29.82;48.66;98904.59;1802991;79;21004;-75
2022/08/17 10:41:35;;;;;;;20.95;6.37;;;;;;;29.90;49.00;98902.30;1802519;79;21581;-75
2022/08/17 10:44:33;;;;;;;16.87;5.75;;;;;;;29.95;48.65;98897.13;1749921;79;21109;-74
2022/08/17 10:47:05;;;;;;;20.75;6.33;;;;;;;29.99;48.85;98903.34;1800375;79;21768;-75
2022/08/17 10:49:35;;;;;;;14.45;5.50;;;;;;;30.09;49.54;98892.66;1800172;78;21055;-75
2022/08/17 10:52:29;;;;;;;19.45;6.05;;;;;;;30.12;48.85;98899.06;1784299;80;21019;-75
2022/08/17 10:55:10;;;;;;;15.80;5.60;;;;;;;30.09;48.99;98897.56;1685785;84;21103;-75
2022/08/17 10:57:41;;;;;;;15.45;6.15;;;;;;;30.05;47.62;98890.86;1752998;81;21573;-75
2022/08/17 11:00:16;;;;;;;16.60;6.58;;;;;;;30.07;48.70;98889.31;1752822;81;21129;-75
2022/08/17 11:02:52;;;;;;;11.12;5.42;;;;;;;30.10;48.63;98888.40;1783932;80;20992;-76
2022/08/17 11:05:51;;;;;;;17.45;5.35;;;;;;;30.12;48.98;98894.98;1808749;79;21102;-75
2022/08/17 11:08:51;;;;;;;20.20;5.87;;;;;;;30.12;49.08;98886.85;1808361;79;21043;-75
2022/08/17 11:11:34;;;;;;;11.43;5.10;;;;;;;30.13;49.70;98895.33;1807546;79;21049;-75
2022/08/17 11:14:46;;;;;;;11.25;5.30;;;;;;;30.08;48.22;98892.36;1808374;79;21475;-75
2022/08/17 11:17:44;;;;;;;17.15;5.30;;;;;;;29.97;48.25;98888.27;1808635;79;21058;-74
2022/08/17 11:20:44;;;;;;;16.82;5.67;;;;;;;29.84;49.64;98884.91;1808739;79;21047;-76
2022/08/17 11:23:37;;;;;;;15.60;5.30;;;;;;;29.83;50.53;98877.82;1790141;79;21043;-75
2022/08/17 11:26:07;;;;;;;15.53;4.90;;;;;;;29.95;49.74;98876.26;1754846;79;20995;-75
2022/08/17 11:28:48;;;;;;;16.62;5.10;;;;;;;30.10;50.12;98875.36;1755893;79;21255;-75
2022/08/17 11:31:39;;;;;;;15.72;5.72;;;;;;;30.18;48.61;98878.77;1808955;79;21157;-75
2022/08/17 11:34:20;;;;;;;12.33;5.20;;;;;;;30.23;47.78;98875.97;1808125;79;21149;-75
2022/08/17 11:37:17;;;;;;;11.43;5.30;;;;;;;30.26;48.83;98869.66;1781758;79;21530;-75
2022/08/17 11:40:24;;;;;;;14.75;5.30;;;;;;;30.30;49.57;98870.11;1820666;78;21029;-75
2022/08/17 11:43:14;;;;;;;14.18;5.33;;;;;;;30.27;47.86;98874.03;1820796;78;21442;-75
2022/08/17 11:46:04;;;;;;;14.65;5.20;;;;;;;30.23;48.90;98866.47;1748440;82;21060;-75
2022/08/17 11:52:04;;;;;;;18.87;5.22;;;;;;;30.24;49.01;98854.08;1716502;83;21989;-75
2022/08/17 11:54:38;;;;;;;13.72;5.53;;;;;;;30.25;48.45;98851.69;1692243;84;22046;-74
2022/08/17 11:57:30;;;;;;;16.90;5.17;;;;;;;30.25;48.95;98853.05;1745108;80;21131;-74
2022/08/17 12:00:15;;;;;;;16.00;5.50;;;;;;;30.24;48.01;98852.72;1793673;80;21048;-75
2022/08/17 12:02:44;;;;;;;14.28;5.62;;;;;;;30.22;48.53;98852.08;1792030;79;21672;-74
2022/08/17 12:05:26;;;;;;;13.05;4.97;;;;;;;30.16;48.58;98848.78;1793667;79;21039;-75
2022/08/17 12:08:06;;;;;;;11.95;4.60;;;;;;;30.20;49.55;98851.45;1793434;79;21614;-74
2022/08/17 12:10:35;;;;;;;14.78;5.97;;;;;;;30.26;49.79;98853.88;1793752;79;21805;-74
2022/08/17 12:13:13;;;;;;;12.07;5.78;;;;;;;30.27;48.03;98848.25;1793391;80;21047;-74
2022/08/17 12:15:49;;;;;;;14.55;5.17;;;;;;;30.21;48.55;98851.75;1793608;80;21056;-75
2022/08/17 12:18:29;;;;;;;13.68;5.30;;;;;;;30.10;48.09;98849.06;1793545;80;21098;-75
2022/08/17 12:21:27;;;;;;;14.60;5.35;;;;;;;29.98;48.24;98844.69;1793792;79;20996;-74
2022/08/17 12:24:11;;;;;;;19.23;5.22;;;;;;;29.91;48.68;98850.58;1793950;80;21224;-75
2022/08/17 12:26:39;;;;;;;11.45;5.22;;;;;;;29.81;49.59;98847.35;1793697;79;21047;-74
2022/08/17 12:29:13;;;;;;;14.13;6.03;;;;;;;29.75;51.33;98845.38;1793402;80;21079;-75
2022/08/17 12:31:44;;;;;;;16.62;5.22;;;;;;;29.69;50.61;98847.48;1794207;79;21099;-75
2022/08/17 12:34:27;;;;;;;12.90;4.95;;;;;;;29.60;50.17;98848.97;1793924;80;21036;-74
2022/08/17 12:37:00;;;;;;;8.25;4.28;;;;;;;29.53;49.61;98843.17;1794173;79;21090;-75